sensor_id;sensor_type;location;lat;lon;timestamp;P1;durP1;ratioP1;P2;durP2;ratioP2
53521;SDS011;39398;48.382;9.802;2022-09-24T00:00:43;27.83;;;19.77;;
53521;SDS011;39398;48.382;9.802;2022-09-24T00:01:46;28.17;;;21.05;;
53521;SDS011;39398;48.382;9.802;2022-09-24T00:02:48;23.77;;;19.75;;
53521;SDS011;39398;48.382;9.802;2022-09-24T00:03:50;30.10;;;20.52;;
53521;SDS011;39398;48.382;9.802;2022-09-24T00:04:52;25.20;;;19.65;;
53521;SDS011;39398;48.382;9.802;2022-09-24T00:05:54;28.95;;;19.20;;
53521;SDS011;39398;48.382;9.802;2022-09-24T00:06:55;25.08;;;19.85;;
53521;SDS011;39398;48.382;9.802;2022-09-24T00:07:58;27.38;;;20.05;;
53521;SDS011;39398;48.382;9.802;2022-09-24T00:09:00;26.02;;;19.25;;
53521;SDS011;39398;48.382;9.802;2022-09-24T00:10:01;28.20;;;19.60;;
53521;SDS011;39398;48.382;9.802;2022-09-24T00:11:03;27.52;;;19.45;;
53521;SDS011;39398;48.382;9.802;2022-09-24T00:12:07;29.02;;;19.70;;
53521;SDS011;39398;48.382;9.802;2022-09-24T00:13:12;26.85;;;18.27;;
53521;SDS011;39398;48.382;9.802;2022-09-24T00:14:15;26.38;;;19.23;;
53521;SDS011;39398;48.382;9.802;2022-09-24T00:15:17;27.13;;;20.05;;
53521;SDS011;39398;48.382;9.802;2022-09-24T00:16:19;28.38;;;20.17;;
53521;SDS011;39398;48.382;9.802;2022-09-24T00:17:22;24.77;;;18.52;;
53521;SDS011;39398;48.382;9.802;2022-09-24T00:18:23;26.33;;;20.02;;
53521;SDS011;39398;48.382;9.802;2022-09-24T00:19:25;24.90;;;19.33;;
53521;SDS011;39398;48.382;9.802;2022-09-24T00:20:28;21.52;;;16.77;;
53521;SDS011;39398;48.382;9.802;2022-09-24T00:21:30;25.35;;;17.50;;
53521;SDS011;39398;48.382;9.802;2022-09-24T00:22:33;26.38;;;19.13;;
53521;SDS011;39398;48.382;9.802;2022-09-24T00:23:36;26.60;;;19.40;;
53521;SDS011;39398;48.382;9.802;2022-09-24T00:24:37;24.83;;;17.70;;
53521;SDS011;39398;48.382;9.802;2022-09-24T00:25:39;25.48;;;18.02;;
53521;SDS011;39398;48.382;9.802;2022-09-24T00:26:41;24.27;;;18.65;;
53521;SDS011;39398;48.382;9.802;2022-09-24T00:27:42;26.45;;;19.08;;
53521;SDS011;39398;48.382;9.802;2022-09-24T00:28:44;22.85;;;17.15;;
53521;SDS011;39398;48.382;9.802;2022-09-24T00:29:45;26.02;;;18.42;;
53521;SDS011;39398;48.382;9.802;2022-09-24T00:30:46;24.10;;;18.42;;
53521;SDS011;39398;48.382;9.802;2022-09-24T00:31:49;30.45;;;19.83;;
53521;SDS011;39398;48.382;9.802;2022-09-24T00:32:51;29.75;;;19.67;;
53521;SDS011;39398;48.382;9.802;2022-09-24T00:33:53;27.30;;;20.00;;
53521;SDS011;39398;48.382;9.802;2022-09-24T00:34:54;28.40;;;19.65;;
53521;SDS011;39398;48.382;9.802;2022-09-24T00:35:57;29.45;;;20.60;;
53521;SDS011;39398;48.382;9.802;2022-09-24T00:36:59;31.40;;;21.20;;
53521;SDS011;39398;48.382;9.802;2022-09-24T00:38:00;33.38;;;21.15;;
53521;SDS011;39398;48.382;9.802;2022-09-24T00:39:03;31.92;;;21.42;;
53521;SDS011;39398;48.382;9.802;2022-09-24T00:40:05;29.08;;;20.30;;
53521;SDS011;39398;48.382;9.802;2022-09-24T00:41:08;29.27;;;21.15;;
53521;SDS011;39398;48.382;9.802;2022-09-24T00:42:09;27.52;;;19.50;;
53521;SDS011;39398;48.382;9.802;2022-09-24T00:43:24;22.85;;;17.77;;
53521;SDS011;39398;48.382;9.802;2022-09-24T00:45:51;28.48;;;17.95;;
53521;SDS011;39398;48.382;9.802;2022-09-24T00:46:55;26.90;;;19.52;;
53521;SDS011;39398;48.382;9.802;2022-09-24T00:47:57;28.15;;;19.67;;
53521;SDS011;39398;48.382;9.802;2022-09-24T00:49:00;32.15;;;18.35;;
53521;SDS011;39398;48.382;9.802;2022-09-24T00:50:08;30.33;;;19.90;;
53521;SDS011;39398;48.382;9.802;2022-09-24T00:51:16;25.38;;;18.63;;
53521;SDS011;39398;48.382;9.802;2022-09-24T00:52:20;26.83;;;17.85;;
53521;SDS011;39398;48.382;9.802;2022-09-24T00:53:22;25.63;;;18.05;;
53521;SDS011;39398;48.382;9.802;2022-09-24T00:54:26;24.55;;;18.13;;
53521;SDS011;39398;48.382;9.802;2022-09-24T00:55:29;28.42;;;19.38;;
53521;SDS011;39398;48.382;9.802;2022-09-24T00:56:34;23.98;;;18.48;;
53521;SDS011;39398;48.382;9.802;2022-09-24T00:57:37;27.17;;;17.30;;
53521;SDS011;39398;48.382;9.802;2022-09-24T00:58:40;25.60;;;18.63;;
53521;SDS011;39398;48.382;9.802;2022-09-24T00:59:44;27.08;;;18.83;;
53521;SDS011;39398;48.382;9.802;2022-09-24T01:00:45;26.65;;;18.95;;
53521;SDS011;39398;48.382;9.802;2022-09-24T01:01:48;25.05;;;17.17;;
53521;SDS011;39398;48.382;9.802;2022-09-24T01:02:52;24.23;;;18.15;;
53521;SDS011;39398;48.382;9.802;2022-09-24T01:03:58;23.90;;;17.00;;
53521;SDS011;39398;48.382;9.802;2022-09-24T01:05:02;24.67;;;16.92;;
53521;SDS011;39398;48.382;9.802;2022-09-24T01:06:05;23.33;;;17.13;;
53521;SDS011;39398;48.382;9.802;2022-09-24T01:07:07;25.92;;;16.95;;
53521;SDS011;39398;48.382;9.802;2022-09-24T01:08:09;21.92;;;16.52;;
53521;SDS011;39398;48.382;9.802;2022-09-24T01:09:12;25.73;;;17.70;;
53521;SDS011;39398;48.382;9.802;2022-09-24T01:10:15;26.65;;;17.45;;
53521;SDS011;39398;48.382;9.802;2022-09-24T01:11:22;24.73;;;16.67;;
53521;SDS011;39398;48.382;9.802;2022-09-24T01:12:37;22.98;;;16.95;;
53521;SDS011;39398;48.382;9.802;2022-09-24T01:13:55;22.58;;;16.85;;
53521;SDS011;39398;48.382;9.802;2022-09-24T01:15:19;22.17;;;16.25;;
53521;SDS011;39398;48.382;9.802;2022-09-24T01:16:27;22.35;;;16.42;;
53521;SDS011;39398;48.382;9.802;2022-09-24T01:17:36;20.50;;;14.82;;
53521;SDS011;39398;48.382;9.802;2022-09-24T01:18:48;23.27;;;15.63;;
53521;SDS011;39398;48.382;9.802;2022-09-24T01:20:02;20.95;;;14.88;;
53521;SDS011;39398;48.382;9.802;2022-09-24T01:21:22;21.35;;;14.98;;
53521;SDS011;39398;48.382;9.802;2022-09-24T01:22:30;21.90;;;15.00;;
53521;SDS011;39398;48.382;9.802;2022-09-24T01:23:44;22.70;;;15.57;;
53521;SDS011;39398;48.382;9.802;2022-09-24T01:25:02;24.33;;;16.08;;
53521;SDS011;39398;48.382;9.802;2022-09-24T01:26:17;19.35;;;14.43;;
53521;SDS011;39398;48.382;9.802;2022-09-24T01:27:38;23.00;;;15.20;;
53521;SDS011;39398;48.382;9.802;2022-09-24T01:28:53;20.63;;;15.80;;
53521;SDS011;39398;48.382;9.802;2022-09-24T01:30:06;23.60;;;15.75;;
53521;SDS011;39398;48.382;9.802;2022-09-24T01:31:09;24.83;;;15.43;;
53521;SDS011;39398;48.382;9.802;2022-09-24T01:32:18;26.35;;;16.75;;
53521;SDS011;39398;48.382;9.802;2022-09-24T01:33:31;20.63;;;14.93;;
53521;SDS011;39398;48.382;9.802;2022-09-24T01:34:38;21.98;;;16.10;;
53521;SDS011;39398;48.382;9.802;2022-09-24T01:35:42;24.33;;;16.45;;
53521;SDS011;39398;48.382;9.802;2022-09-24T01:36:46;22.88;;;16.35;;
53521;SDS011;39398;48.382;9.802;2022-09-24T01:37:48;21.67;;;15.50;;
53521;SDS011;39398;48.382;9.802;2022-09-24T01:38:54;25.13;;;16.73;;
53521;SDS011;39398;48.382;9.802;2022-09-24T01:39:57;24.70;;;15.77;;
53521;SDS011;39398;48.382;9.802;2022-09-24T01:41:00;21.92;;;15.77;;
53521;SDS011;39398;48.382;9.802;2022-09-24T01:42:03;23.35;;;16.02;;
53521;SDS011;39398;48.382;9.802;2022-09-24T01:43:06;23.52;;;15.77;;
53521;SDS011;39398;48.382;9.802;2022-09-24T01:44:10;23.27;;;15.85;;
53521;SDS011;39398;48.382;9.802;2022-09-24T01:45:14;22.27;;;16.13;;
53521;SDS011;39398;48.382;9.802;2022-09-24T01:46:17;21.05;;;15.52;;
53521;SDS011;39398;48.382;9.802;2022-09-24T01:47:22;21.35;;;14.50;;
53521;SDS011;39398;48.382;9.802;2022-09-24T01:48:35;22.45;;;15.80;;
53521;SDS011;39398;48.382;9.802;2022-09-24T01:49:37;19.38;;;14.70;;
53521;SDS011;39398;48.382;9.802;2022-09-24T01:50:39;20.67;;;14.20;;
53521;SDS011;39398;48.382;9.802;2022-09-24T01:51:46;20.45;;;13.85;;
53521;SDS011;39398;48.382;9.802;2022-09-24T01:52:56;21.13;;;13.38;;
53521;SDS011;39398;48.382;9.802;2022-09-24T01:54:02;17.55;;;12.55;;
53521;SDS011;39398;48.382;9.802;2022-09-24T01:55:08;15.65;;;12.50;;
53521;SDS011;39398;48.382;9.802;2022-09-24T01:56:12;21.67;;;12.73;;
53521;SDS011;39398;48.382;9.802;2022-09-24T01:57:19;22.40;;;11.98;;
53521;SDS011;39398;48.382;9.802;2022-09-24T01:58:25;16.00;;;11.93;;
53521;SDS011;39398;48.382;9.802;2022-09-24T01:59:31;16.98;;;11.95;;
53521;SDS011;39398;48.382;9.802;2022-09-24T02:00:40;17.63;;;12.75;;
53521;SDS011;39398;48.382;9.802;2022-09-24T02:01:46;16.50;;;12.07;;
53521;SDS011;39398;48.382;9.802;2022-09-24T02:02:54;19.27;;;11.95;;
53521;SDS011;39398;48.382;9.802;2022-09-24T02:03:59;15.50;;;11.55;;
53521;SDS011;39398;48.382;9.802;2022-09-24T02:05:08;15.55;;;10.68;;
53521;SDS011;39398;48.382;9.802;2022-09-24T02:06:14;16.02;;;9.63;;
53521;SDS011;39398;48.382;9.802;2022-09-24T02:07:19;14.98;;;9.82;;
53521;SDS011;39398;48.382;9.802;2022-09-24T02:08:28;10.40;;;8.73;;
53521;SDS011;39398;48.382;9.802;2022-09-24T02:09:34;9.55;;;7.95;;
53521;SDS011;39398;48.382;9.802;2022-09-24T02:10:40;11.15;;;8.23;;
53521;SDS011;39398;48.382;9.802;2022-09-24T02:11:46;10.23;;;7.30;;
53521;SDS011;39398;48.382;9.802;2022-09-24T02:12:53;9.75;;;6.95;;
53521;SDS011;39398;48.382;9.802;2022-09-24T02:13:59;8.63;;;6.63;;
53521;SDS011;39398;48.382;9.802;2022-09-24T02:15:06;8.27;;;6.28;;
53521;SDS011;39398;48.382;9.802;2022-09-24T02:16:12;10.60;;;6.70;;
53521;SDS011;39398;48.382;9.802;2022-09-24T02:17:15;8.30;;;6.18;;
53521;SDS011;39398;48.382;9.802;2022-09-24T02:18:18;8.95;;;5.88;;
53521;SDS011;39398;48.382;9.802;2022-09-24T02:19:25;6.85;;;5.95;;
53521;SDS011;39398;48.382;9.802;2022-09-24T02:20:29;8.65;;;5.68;;
53521;SDS011;39398;48.382;9.802;2022-09-24T02:21:32;6.60;;;5.85;;
53521;SDS011;39398;48.382;9.802;2022-09-24T02:22:36;9.50;;;6.32;;
53521;SDS011;39398;48.382;9.802;2022-09-24T02:23:39;7.85;;;6.53;;
53521;SDS011;39398;48.382;9.802;2022-09-24T02:24:46;9.30;;;6.22;;
53521;SDS011;39398;48.382;9.802;2022-09-24T02:25:51;7.30;;;5.95;;
53521;SDS011;39398;48.382;9.802;2022-09-24T02:26:56;9.00;;;6.38;;
53521;SDS011;39398;48.382;9.802;2022-09-24T02:27:57;10.25;;;6.68;;
53521;SDS011;39398;48.382;9.802;2022-09-24T02:28:59;10.38;;;6.72;;
53521;SDS011;39398;48.382;9.802;2022-09-24T02:30:00;7.13;;;6.00;;
53521;SDS011;39398;48.382;9.802;2022-09-24T02:31:03;10.13;;;6.63;;
53521;SDS011;39398;48.382;9.802;2022-09-24T02:32:09;8.27;;;6.88;;
53521;SDS011;39398;48.382;9.802;2022-09-24T02:33:14;8.45;;;6.43;;
53521;SDS011;39398;48.382;9.802;2022-09-24T02:34:17;9.20;;;6.88;;
53521;SDS011;39398;48.382;9.802;2022-09-24T02:35:21;10.32;;;6.97;;
53521;SDS011;39398;48.382;9.802;2022-09-24T02:36:23;9.95;;;6.57;;
53521;SDS011;39398;48.382;9.802;2022-09-24T02:37:25;11.75;;;7.53;;
53521;SDS011;39398;48.382;9.802;2022-09-24T02:38:26;14.00;;;9.75;;
53521;SDS011;39398;48.382;9.802;2022-09-24T02:39:28;17.70;;;10.88;;
53521;SDS011;39398;48.382;9.802;2022-09-24T02:40:29;16.52;;;11.23;;
53521;SDS011;39398;48.382;9.802;2022-09-24T02:41:31;13.02;;;10.98;;
53521;SDS011;39398;48.382;9.802;2022-09-24T02:42:34;14.25;;;10.48;;
53521;SDS011;39398;48.382;9.802;2022-09-24T02:43:35;13.48;;;10.68;;
53521;SDS011;39398;48.382;9.802;2022-09-24T02:44:37;15.00;;;10.93;;
53521;SDS011;39398;48.382;9.802;2022-09-24T02:45:38;11.75;;;9.85;;
53521;SDS011;39398;48.382;9.802;2022-09-24T02:46:40;12.77;;;9.25;;
53521;SDS011;39398;48.382;9.802;2022-09-24T02:47:43;12.73;;;9.20;;
53521;SDS011;39398;48.382;9.802;2022-09-24T02:48:44;11.90;;;9.05;;
53521;SDS011;39398;48.382;9.802;2022-09-24T02:49:46;13.32;;;9.38;;
53521;SDS011;39398;48.382;9.802;2022-09-24T02:50:47;14.70;;;8.80;;
53521;SDS011;39398;48.382;9.802;2022-09-24T02:51:49;14.48;;;9.20;;
53521;SDS011;39398;48.382;9.802;2022-09-24T02:52:50;11.20;;;8.23;;
53521;SDS011;39398;48.382;9.802;2022-09-24T02:53:51;10.30;;;7.93;;
53521;SDS011;39398;48.382;9.802;2022-09-24T02:54:53;15.27;;;8.10;;
53521;SDS011;39398;48.382;9.802;2022-09-24T02:55:54;13.05;;;8.70;;
53521;SDS011;39398;48.382;9.802;2022-09-24T02:56:56;11.68;;;8.40;;
53521;SDS011;39398;48.382;9.802;2022-09-24T02:57:57;13.68;;;9.35;;
53521;SDS011;39398;48.382;9.802;2022-09-24T02:58:59;12.48;;;9.20;;
53521;SDS011;39398;48.382;9.802;2022-09-24T03:00:01;16.45;;;9.23;;
53521;SDS011;39398;48.382;9.802;2022-09-24T03:01:02;10.60;;;8.10;;
53521;SDS011;39398;48.382;9.802;2022-09-24T03:02:04;10.50;;;8.10;;
53521;SDS011;39398;48.382;9.802;2022-09-24T03:03:07;9.88;;;7.68;;
53521;SDS011;39398;48.382;9.802;2022-09-24T03:04:08;9.73;;;7.15;;
53521;SDS011;39398;48.382;9.802;2022-09-24T03:05:10;9.25;;;7.78;;
53521;SDS011;39398;48.382;9.802;2022-09-24T03:06:11;10.13;;;7.00;;
53521;SDS011;39398;48.382;9.802;2022-09-24T03:07:12;11.77;;;7.03;;
53521;SDS011;39398;48.382;9.802;2022-09-24T03:08:14;8.63;;;6.43;;
53521;SDS011;39398;48.382;9.802;2022-09-24T03:09:15;9.55;;;6.35;;
53521;SDS011;39398;48.382;9.802;2022-09-24T03:10:17;9.20;;;6.53;;
53521;SDS011;39398;48.382;9.802;2022-09-24T03:11:19;8.05;;;6.20;;
53521;SDS011;39398;48.382;9.802;2022-09-24T03:12:21;12.38;;;6.78;;
53521;SDS011;39398;48.382;9.802;2022-09-24T03:13:22;8.73;;;6.10;;
53521;SDS011;39398;48.382;9.802;2022-09-24T03:14:24;8.43;;;6.15;;
53521;SDS011;39398;48.382;9.802;2022-09-24T03:15:25;10.50;;;6.40;;
53521;SDS011;39398;48.382;9.802;2022-09-24T03:16:26;8.80;;;6.35;;
53521;SDS011;39398;48.382;9.802;2022-09-24T03:17:28;7.47;;;5.82;;
53521;SDS011;39398;48.382;9.802;2022-09-24T03:18:31;6.80;;;5.80;;
53521;SDS011;39398;48.382;9.802;2022-09-24T03:19:33;9.63;;;5.97;;
53521;SDS011;39398;48.382;9.802;2022-09-24T03:20:34;8.93;;;6.38;;
53521;SDS011;39398;48.382;9.802;2022-09-24T03:21:36;8.35;;;6.30;;
53521;SDS011;39398;48.382;9.802;2022-09-24T03:22:37;12.25;;;6.15;;
53521;SDS011;39398;48.382;9.802;2022-09-24T03:23:39;8.75;;;6.82;;
53521;SDS011;39398;48.382;9.802;2022-09-24T03:24:41;12.13;;;6.35;;
53521;SDS011;39398;48.382;9.802;2022-09-24T03:25:43;10.65;;;7.10;;
53521;SDS011;39398;48.382;9.802;2022-09-24T03:26:44;10.95;;;7.35;;
53521;SDS011;39398;48.382;9.802;2022-09-24T03:27:45;11.75;;;6.85;;
53521;SDS011;39398;48.382;9.802;2022-09-24T03:28:47;11.63;;;7.20;;
53521;SDS011;39398;48.382;9.802;2022-09-24T03:29:49;10.23;;;6.85;;
53521;SDS011;39398;48.382;9.802;2022-09-24T03:30:50;16.08;;;7.28;;
53521;SDS011;39398;48.382;9.802;2022-09-24T03:31:51;10.50;;;7.00;;
53521;SDS011;39398;48.382;9.802;2022-09-24T03:32:53;11.00;;;7.53;;
53521;SDS011;39398;48.382;9.802;2022-09-24T03:33:56;8.48;;;6.75;;
53521;SDS011;39398;48.382;9.802;2022-09-24T03:34:57;11.65;;;7.22;;
53521;SDS011;39398;48.382;9.802;2022-09-24T03:35:59;8.90;;;6.85;;
53521;SDS011;39398;48.382;9.802;2022-09-24T03:37:02;14.02;;;6.60;;
53521;SDS011;39398;48.382;9.802;2022-09-24T03:38:04;10.35;;;6.53;;
53521;SDS011;39398;48.382;9.802;2022-09-24T03:39:05;11.00;;;6.53;;
53521;SDS011;39398;48.382;9.802;2022-09-24T03:40:07;9.73;;;7.07;;
53521;SDS011;39398;48.382;9.802;2022-09-24T03:41:09;10.48;;;6.95;;
53521;SDS011;39398;48.382;9.802;2022-09-24T03:42:12;10.57;;;6.70;;
53521;SDS011;39398;48.382;9.802;2022-09-24T03:43:13;8.05;;;6.60;;
53521;SDS011;39398;48.382;9.802;2022-09-24T03:44:14;10.60;;;6.80;;
53521;SDS011;39398;48.382;9.802;2022-09-24T03:45:16;9.20;;;6.97;;
53521;SDS011;39398;48.382;9.802;2022-09-24T03:46:17;10.27;;;6.82;;
53521;SDS011;39398;48.382;9.802;2022-09-24T03:47:19;11.40;;;7.13;;
53521;SDS011;39398;48.382;9.802;2022-09-24T03:48:21;10.65;;;8.38;;
53521;SDS011;39398;48.382;9.802;2022-09-24T03:49:25;11.63;;;7.85;;
53521;SDS011;39398;48.382;9.802;2022-09-24T03:50:26;11.75;;;7.60;;
53521;SDS011;39398;48.382;9.802;2022-09-24T03:51:27;15.05;;;8.70;;
53521;SDS011;39398;48.382;9.802;2022-09-24T03:52:29;12.30;;;8.57;;
53521;SDS011;39398;48.382;9.802;2022-09-24T03:53:30;12.70;;;8.30;;
53521;SDS011;39398;48.382;9.802;2022-09-24T03:54:32;12.32;;;9.05;;
53521;SDS011;39398;48.382;9.802;2022-09-24T03:55:34;11.48;;;8.85;;
53521;SDS011;39398;48.382;9.802;2022-09-24T03:56:36;10.02;;;7.93;;
53521;SDS011;39398;48.382;9.802;2022-09-24T03:57:37;9.68;;;7.03;;
53521;SDS011;39398;48.382;9.802;2022-09-24T03:58:39;14.68;;;7.63;;
53521;SDS011;39398;48.382;9.802;2022-09-24T03:59:41;8.35;;;6.75;;
53521;SDS011;39398;48.382;9.802;2022-09-24T04:00:42;11.10;;;6.95;;
53521;SDS011;39398;48.382;9.802;2022-09-24T04:01:44;11.45;;;7.32;;
53521;SDS011;39398;48.382;9.802;2022-09-24T04:02:45;9.68;;;6.75;;
53521;SDS011;39398;48.382;9.802;2022-09-24T04:03:47;8.18;;;6.32;;
53521;SDS011;39398;48.382;9.802;2022-09-24T04:04:50;10.63;;;6.85;;
53521;SDS011;39398;48.382;9.802;2022-09-24T04:05:52;8.65;;;6.72;;
53521;SDS011;39398;48.382;9.802;2022-09-24T04:06:53;7.72;;;6.25;;
53521;SDS011;39398;48.382;9.802;2022-09-24T04:07:55;10.55;;;6.93;;
53521;SDS011;39398;48.382;9.802;2022-09-24T04:08:56;9.32;;;7.03;;
53521;SDS011;39398;48.382;9.802;2022-09-24T04:09:58;9.93;;;6.40;;
53521;SDS011;39398;48.382;9.802;2022-09-24T04:10:59;8.43;;;6.68;;
53521;SDS011;39398;48.382;9.802;2022-09-24T04:12:01;10.90;;;7.00;;
53521;SDS011;39398;48.382;9.802;2022-09-24T04:13:04;8.90;;;7.03;;
53521;SDS011;39398;48.382;9.802;2022-09-24T04:14:05;12.15;;;6.50;;
53521;SDS011;39398;48.382;9.802;2022-09-24T04:15:07;9.25;;;7.30;;
53521;SDS011;39398;48.382;9.802;2022-09-24T04:16:14;12.80;;;6.75;;
53521;SDS011;39398;48.382;9.802;2022-09-24T04:17:16;8.95;;;7.15;;
53521;SDS011;39398;48.382;9.802;2022-09-24T04:18:17;7.65;;;6.75;;
53521;SDS011;39398;48.382;9.802;2022-09-24T04:19:18;9.80;;;6.93;;
53521;SDS011;39398;48.382;9.802;2022-09-24T04:20:22;9.65;;;6.72;;
53521;SDS011;39398;48.382;9.802;2022-09-24T04:21:25;8.40;;;6.25;;
53521;SDS011;39398;48.382;9.802;2022-09-24T04:22:26;10.57;;;6.65;;
53521;SDS011;39398;48.382;9.802;2022-09-24T04:23:28;9.98;;;6.22;;
53521;SDS011;39398;48.382;9.802;2022-09-24T04:24:29;11.32;;;6.38;;
53521;SDS011;39398;48.382;9.802;2022-09-24T04:25:31;10.85;;;6.70;;
53521;SDS011;39398;48.382;9.802;2022-09-24T04:26:33;9.55;;;6.57;;
53521;SDS011;39398;48.382;9.802;2022-09-24T04:27:35;9.93;;;7.18;;
53521;SDS011;39398;48.382;9.802;2022-09-24T04:28:36;10.55;;;7.32;;
53521;SDS011;39398;48.382;9.802;2022-09-24T04:29:38;13.75;;;7.50;;
53521;SDS011;39398;48.382;9.802;2022-09-24T04:30:39;13.00;;;8.07;;
53521;SDS011;39398;48.382;9.802;2022-09-24T04:31:40;11.00;;;7.50;;
53521;SDS011;39398;48.382;9.802;2022-09-24T04:32:42;11.52;;;7.75;;
53521;SDS011;39398;48.382;9.802;2022-09-24T04:33:44;11.57;;;7.10;;
53521;SDS011;39398;48.382;9.802;2022-09-24T04:34:45;9.38;;;7.07;;
53521;SDS011;39398;48.382;9.802;2022-09-24T04:35:48;11.65;;;6.57;;
53521;SDS011;39398;48.382;9.802;2022-09-24T04:36:49;10.30;;;7.25;;
53521;SDS011;39398;48.382;9.802;2022-09-24T04:37:50;10.35;;;7.25;;
53521;SDS011;39398;48.382;9.802;2022-09-24T04:38:52;13.27;;;7.53;;
53521;SDS011;39398;48.382;9.802;2022-09-24T04:39:53;11.63;;;7.35;;
53521;SDS011;39398;48.382;9.802;2022-09-24T04:41:02;11.57;;;7.70;;
53521;SDS011;39398;48.382;9.802;2022-09-24T04:42:04;8.77;;;7.60;;
53521;SDS011;39398;48.382;9.802;2022-09-24T04:43:06;12.27;;;8.00;;
53521;SDS011;39398;48.382;9.802;2022-09-24T04:44:07;14.07;;;8.73;;
53521;SDS011;39398;48.382;9.802;2022-09-24T04:45:09;12.07;;;9.25;;
53521;SDS011;39398;48.382;9.802;2022-09-24T04:46:11;10.77;;;9.10;;
53521;SDS011;39398;48.382;9.802;2022-09-24T04:47:13;14.38;;;9.68;;
53521;SDS011;39398;48.382;9.802;2022-09-24T04:48:15;18.80;;;8.82;;
53521;SDS011;39398;48.382;9.802;2022-09-24T04:49:16;16.10;;;10.20;;
53521;SDS011;39398;48.382;9.802;2022-09-24T04:50:18;10.63;;;8.70;;
53521;SDS011;39398;48.382;9.802;2022-09-24T04:51:21;15.82;;;8.95;;
53521;SDS011;39398;48.382;9.802;2022-09-24T04:52:23;13.85;;;9.35;;
53521;SDS011;39398;48.382;9.802;2022-09-24T04:53:24;14.10;;;9.52;;
53521;SDS011;39398;48.382;9.802;2022-09-24T04:54:26;13.70;;;9.65;;
53521;SDS011;39398;48.382;9.802;2022-09-24T04:55:27;16.05;;;11.27;;
53521;SDS011;39398;48.382;9.802;2022-09-24T04:56:29;16.15;;;11.30;;
53521;SDS011;39398;48.382;9.802;2022-09-24T04:57:30;16.92;;;11.07;;
53521;SDS011;39398;48.382;9.802;2022-09-24T04:58:32;18.77;;;11.27;;
53521;SDS011;39398;48.382;9.802;2022-09-24T04:59:33;17.55;;;11.13;;
53521;SDS011;39398;48.382;9.802;2022-09-24T05:00:35;16.70;;;11.23;;
53521;SDS011;39398;48.382;9.802;2022-09-24T05:01:37;14.02;;;10.82;;
53521;SDS011;39398;48.382;9.802;2022-09-24T05:02:38;14.88;;;11.50;;
53521;SDS011;39398;48.382;9.802;2022-09-24T05:03:40;16.73;;;11.40;;
53521;SDS011;39398;48.382;9.802;2022-09-24T05:04:41;22.55;;;12.68;;
53521;SDS011;39398;48.382;9.802;2022-09-24T05:05:43;14.98;;;11.18;;
53521;SDS011;39398;48.382;9.802;2022-09-24T05:06:45;16.23;;;11.57;;
53521;SDS011;39398;48.382;9.802;2022-09-24T05:07:47;14.20;;;11.23;;
53521;SDS011;39398;48.382;9.802;2022-09-24T05:08:48;15.02;;;11.20;;
53521;SDS011;39398;48.382;9.802;2022-09-24T05:09:50;20.35;;;11.98;;
53521;SDS011;39398;48.382;9.802;2022-09-24T05:10:51;15.82;;;12.23;;
53521;SDS011;39398;48.382;9.802;2022-09-24T05:11:53;17.17;;;12.82;;
53521;SDS011;39398;48.382;9.802;2022-09-24T05:12:55;23.30;;;13.25;;
53521;SDS011;39398;48.382;9.802;2022-09-24T05:13:57;20.80;;;15.25;;
53521;SDS011;39398;48.382;9.802;2022-09-24T05:14:58;24.70;;;15.55;;
53521;SDS011;39398;48.382;9.802;2022-09-24T05:16:00;24.33;;;15.77;;
53521;SDS011;39398;48.382;9.802;2022-09-24T05:17:02;25.95;;;16.15;;
53521;SDS011;39398;48.382;9.802;2022-09-24T05:18:04;25.50;;;15.73;;
53521;SDS011;39398;48.382;9.802;2022-09-24T05:19:05;21.38;;;15.13;;
53521;SDS011;39398;48.382;9.802;2022-09-24T05:20:07;27.08;;;17.27;;
53521;SDS011;39398;48.382;9.802;2022-09-24T05:21:09;24.55;;;16.98;;
53521;SDS011;39398;48.382;9.802;2022-09-24T05:22:12;23.60;;;16.75;;
53521;SDS011;39398;48.382;9.802;2022-09-24T05:23:13;24.52;;;16.33;;
53521;SDS011;39398;48.382;9.802;2022-09-24T05:24:15;23.38;;;16.80;;
53521;SDS011;39398;48.382;9.802;2022-09-24T05:25:17;22.25;;;15.95;;
53521;SDS011;39398;48.382;9.802;2022-09-24T05:26:20;20.95;;;16.23;;
53521;SDS011;39398;48.382;9.802;2022-09-24T05:27:21;22.20;;;15.90;;
53521;SDS011;39398;48.382;9.802;2022-09-24T05:28:23;20.65;;;15.77;;
53521;SDS011;39398;48.382;9.802;2022-09-24T05:29:24;22.02;;;16.10;;
53521;SDS011;39398;48.382;9.802;2022-09-24T05:30:26;22.75;;;16.55;;
53521;SDS011;39398;48.382;9.802;2022-09-24T05:31:27;22.08;;;15.85;;
53521;SDS011;39398;48.382;9.802;2022-09-24T05:32:29;22.85;;;14.68;;
53521;SDS011;39398;48.382;9.802;2022-09-24T05:33:30;22.70;;;15.18;;
53521;SDS011;39398;48.382;9.802;2022-09-24T05:34:31;21.92;;;16.00;;
53521;SDS011;39398;48.382;9.802;2022-09-24T05:35:33;24.88;;;15.00;;
53521;SDS011;39398;48.382;9.802;2022-09-24T05:36:34;21.77;;;15.02;;
53521;SDS011;39398;48.382;9.802;2022-09-24T05:37:37;23.98;;;15.18;;
53521;SDS011;39398;48.382;9.802;2022-09-24T05:38:39;22.45;;;15.02;;
53521;SDS011;39398;48.382;9.802;2022-09-24T05:39:42;25.52;;;15.75;;
53521;SDS011;39398;48.382;9.802;2022-09-24T05:40:43;18.73;;;14.77;;
53521;SDS011;39398;48.382;9.802;2022-09-24T05:41:44;22.70;;;16.55;;
53521;SDS011;39398;48.382;9.802;2022-09-24T05:42:46;23.33;;;15.57;;
53521;SDS011;39398;48.382;9.802;2022-09-24T05:43:47;20.58;;;15.55;;
53521;SDS011;39398;48.382;9.802;2022-09-24T05:44:49;22.98;;;15.55;;
53521;SDS011;39398;48.382;9.802;2022-09-24T05:45:52;19.35;;;14.43;;
53521;SDS011;39398;48.382;9.802;2022-09-24T05:46:54;21.33;;;14.52;;
53521;SDS011;39398;48.382;9.802;2022-09-24T05:47:55;21.85;;;15.35;;
53521;SDS011;39398;48.382;9.802;2022-09-24T05:48:57;20.05;;;14.70;;
53521;SDS011;39398;48.382;9.802;2022-09-24T05:49:59;24.95;;;15.43;;
53521;SDS011;39398;48.382;9.802;2022-09-24T05:51:00;22.08;;;15.35;;
53521;SDS011;39398;48.382;9.802;2022-09-24T05:52:01;18.38;;;14.93;;
53521;SDS011;39398;48.382;9.802;2022-09-24T05:53:04;21.83;;;14.98;;
53521;SDS011;39398;48.382;9.802;2022-09-24T05:54:06;20.40;;;14.82;;
53521;SDS011;39398;48.382;9.802;2022-09-24T05:55:08;19.80;;;14.57;;
53521;SDS011;39398;48.382;9.802;2022-09-24T05:56:10;21.02;;;14.68;;
53521;SDS011;39398;48.382;9.802;2022-09-24T05:57:12;18.42;;;14.23;;
53521;SDS011;39398;48.382;9.802;2022-09-24T05:58:13;19.60;;;14.50;;
53521;SDS011;39398;48.382;9.802;2022-09-24T05:59:14;19.35;;;13.48;;
53521;SDS011;39398;48.382;9.802;2022-09-24T06:00:16;19.70;;;14.27;;
53521;SDS011;39398;48.382;9.802;2022-09-24T06:01:17;20.15;;;14.23;;
53521;SDS011;39398;48.382;9.802;2022-09-24T06:02:19;21.00;;;14.35;;
53521;SDS011;39398;48.382;9.802;2022-09-24T06:03:20;22.67;;;13.43;;
53521;SDS011;39398;48.382;9.802;2022-09-24T06:04:22;25.33;;;15.15;;
53521;SDS011;39398;48.382;9.802;2022-09-24T06:05:23;19.42;;;13.15;;
53521;SDS011;39398;48.382;9.802;2022-09-24T06:06:25;16.92;;;12.95;;
53521;SDS011;39398;48.382;9.802;2022-09-24T06:07:27;15.80;;;12.90;;
53521;SDS011;39398;48.382;9.802;2022-09-24T06:08:29;25.85;;;14.80;;
53521;SDS011;39398;48.382;9.802;2022-09-24T06:09:32;16.80;;;12.38;;
53521;SDS011;39398;48.382;9.802;2022-09-24T06:10:34;18.08;;;13.20;;
53521;SDS011;39398;48.382;9.802;2022-09-24T06:11:36;17.33;;;13.15;;
53521;SDS011;39398;48.382;9.802;2022-09-24T06:12:41;15.73;;;12.73;;
53521;SDS011;39398;48.382;9.802;2022-09-24T06:13:42;17.30;;;12.57;;